Guemes, Washington
Current Conditions -  °F | °C
As of 12:56 AM on Tuesday 21 Oct 2014 (Local Time) from KNUW Reporting Station
Light Rain Light Rain  
Wind Chill: 14°   Ceiling: 7500
Heat Index: 14°   Visibility: 10mi
Dew Point: 11°   Wind: 16mph
Humidity: 83%   Direction: 140°SE
Pressure: 29.76"   Gusts: 23mph
Location:  48.4652°N, 122.617°W
Report Text: KNUW 210756Z 14014G20KT 10SM -RA SCT017 SCT045 BKN075 14/11 A2976 RMK AO2 RAB11 SLP083 P0001 T01390111 $
Loading
Personal Weather Stations






























Interactive Weather Map
Tropical Storm Tracking
New forecast layout! Learn more

10-Day Weather Forecast

Advertisements
Track Severe Weather on mobile